Terminal Aerodrome Forecast
Issued by NWS Quad Cities IA IL

Home | Current Version | Previous Version | Text Only | Print | Product List | Glossary On
Versions: 1 2 3 4 5 6 7 8 9 10 11 12 13 14 15 16 17 18
000
FTUS43 KDVN 010400 AAB
TAFMLI
TAF AMD
KMLI 010420Z 0104/0124 11004KT 4SM BR BKN070
      TEMPO 0104/0106 1 1/2SM BR SCT006
     FM010900 17006KT 4SM BR OVC022
     FM011300 21007KT P6SM BKN030
     FM011900 25011KT P6SM SCT080 BKN250=

USA.gov is the U.S. government's official web portal to all federal, state and local government web resources and services.